createdAt,value
2016-11-17T00:00:27.561Z,0
2016-11-17T00:01:36.205Z,0
2016-11-17T00:02:44.842Z,0
2016-11-17T00:03:53.478Z,0
2016-11-17T00:05:02.095Z,0
2016-11-17T00:06:10.717Z,0
2016-11-17T00:07:19.365Z,0
2016-11-17T00:08:28.023Z,0
2016-11-17T00:09:36.637Z,0
2016-11-17T00:10:45.274Z,0
2016-11-17T00:11:53.920Z,0
2016-11-17T00:13:02.572Z,0
2016-11-17T00:14:11.187Z,0
2016-11-17T00:15:19.814Z,0
2016-11-17T00:16:28.428Z,0
2016-11-17T00:17:37.052Z,0
2016-11-17T00:18:45.663Z,0
2016-11-17T00:19:54.339Z,0
2016-11-17T00:21:02.963Z,0
2016-11-17T00:22:11.613Z,0
2016-11-17T00:23:20.233Z,0
2016-11-17T00:24:28.869Z,0
2016-11-17T00:25:37.500Z,0
2016-11-17T00:26:46.118Z,0
2016-11-17T00:27:55.040Z,0
2016-11-17T00:29:03.678Z,0
2016-11-17T00:30:12.310Z,0
2016-11-17T00:31:20.955Z,0
2016-11-17T00:32:29.579Z,0
2016-11-17T00:33:38.247Z,0
2016-11-17T00:34:46.892Z,0
2016-11-17T00:35:55.540Z,0
2016-11-17T00:37:04.188Z,0
2016-11-17T00:38:12.822Z,0
2016-11-17T00:39:21.429Z,0
2016-11-17T00:40:30.054Z,0
2016-11-17T00:41:39.014Z,0
2016-11-17T00:42:47.620Z,0
2016-11-17T00:43:56.513Z,0
2016-11-17T00:45:05.133Z,0
2016-11-17T00:46:13.757Z,0
2016-11-17T00:47:22.403Z,0
2016-11-17T00:48:31.020Z,0
2016-11-17T00:49:39.633Z,0
2016-11-17T00:50:48.566Z,0
2016-11-17T00:51:57.204Z,0
2016-11-17T00:53:05.832Z,0
2016-11-17T00:54:14.476Z,0
2016-11-17T00:55:23.118Z,0
2016-11-17T00:56:31.764Z,0
2016-11-17T00:57:40.394Z,0
2016-11-17T00:58:49.019Z,0
2016-11-17T00:59:57.960Z,0
2016-11-17T01:01:06.576Z,0
2016-11-17T01:02:15.202Z,0
2016-11-17T01:03:23.845Z,0
2016-11-17T01:04:32.515Z,0
2016-11-17T01:05:41.136Z,0
2016-11-17T01:06:49.754Z,0
2016-11-17T01:07:58.419Z,0
2016-11-17T01:09:07.026Z,0
2016-11-17T01:10:15.662Z,0
2016-11-17T01:11:24.292Z,0
2016-11-17T01:12:32.914Z,0
2016-11-17T01:13:41.561Z,0
2016-11-17T01:14:50.184Z,0
2016-11-17T01:15:58.823Z,0
2016-11-17T01:17:07.777Z,0
2016-11-17T01:18:16.414Z,0
2016-11-17T01:19:25.106Z,0
2016-11-17T01:20:33.760Z,0
2016-11-17T01:21:42.381Z,0
2016-11-17T01:22:51.024Z,0
2016-11-17T01:23:59.670Z,0
2016-11-17T01:25:08.294Z,0
2016-11-17T01:26:16.924Z,0
2016-11-17T01:27:25.536Z,0
2016-11-17T01:28:34.159Z,0
2016-11-17T01:29:42.796Z,0
2016-11-17T01:30:51.400Z,0
2016-11-17T01:32:00.021Z,0
2016-11-17T01:33:08.647Z,0
2016-11-17T01:34:17.281Z,0
2016-11-17T01:35:25.889Z,0
2016-11-17T01:36:34.508Z,0
2016-11-17T01:37:43.155Z,0
2016-11-17T01:38:51.790Z,0
2016-11-17T01:40:00.420Z,0
2016-11-17T01:41:09.069Z,0
2016-11-17T01:42:17.691Z,0
2016-11-17T01:43:26.309Z,0
2016-11-17T01:44:34.945Z,0
2016-11-17T01:45:43.596Z,0
2016-11-17T01:46:52.226Z,0
2016-11-17T01:48:00.834Z,0
2016-11-17T01:49:09.465Z,0
2016-11-17T01:50:18.113Z,0
2016-11-17T01:51:26.730Z,0
2016-11-17T01:52:35.368Z,0
2016-11-17T01:53:43.990Z,0
2016-11-17T01:54:52.627Z,0
2016-11-17T01:56:01.292Z,0
2016-11-17T01:57:09.914Z,0
2016-11-17T01:58:18.559Z,0
2016-11-17T01:59:27.183Z,0
2016-11-17T02:00:36.108Z,0
2016-11-17T02:01:44.742Z,0
2016-11-17T02:02:53.388Z,0
2016-11-17T02:04:02.037Z,0
2016-11-17T02:05:10.653Z,0
2016-11-17T02:06:19.260Z,0
2016-11-17T02:07:27.926Z,0
2016-11-17T02:08:36.553Z,0
2016-11-17T02:09:45.169Z,0
2016-11-17T02:10:53.823Z,0
2016-11-17T02:12:02.464Z,0
2016-11-17T02:13:11.110Z,0
2016-11-17T02:14:19.745Z,0
2016-11-17T02:15:28.389Z,0
2016-11-17T02:16:37.040Z,0
2016-11-17T02:17:45.715Z,0
2016-11-17T02:18:54.341Z,0
2016-11-17T02:20:02.978Z,0
2016-11-17T02:21:11.632Z,0
2016-11-17T02:22:20.252Z,0
2016-11-17T02:23:28.943Z,0
2016-11-17T02:24:37.564Z,0
2016-11-17T02:25:46.231Z,0
2016-11-17T02:26:54.835Z,0
2016-11-17T02:28:03.451Z,0
2016-11-17T02:29:12.069Z,0
2016-11-17T02:30:20.696Z,0
2016-11-17T02:31:29.320Z,0
2016-11-17T02:32:37.936Z,0
2016-11-17T02:33:46.573Z,0
2016-11-17T02:34:55.198Z,0
2016-11-17T02:36:03.872Z,0
2016-11-17T02:37:12.495Z,0
2016-11-17T02:38:21.145Z,0
2016-11-17T02:39:29.785Z,0
2016-11-17T02:40:38.428Z,0
2016-11-17T02:41:47.074Z,0
2016-11-17T02:42:55.717Z,0
2016-11-17T02:44:04.323Z,0
2016-11-17T02:45:12.958Z,0
2016-11-17T02:46:21.567Z,0
2016-11-17T02:47:30.158Z,0
2016-11-17T02:48:38.783Z,0
2016-11-17T02:49:47.424Z,0
2016-11-17T02:50:56.046Z,0
2016-11-17T02:52:04.685Z,0
2016-11-17T02:53:13.311Z,0
2016-11-17T02:54:21.951Z,0
2016-11-17T02:55:30.555Z,0
2016-11-17T02:56:39.176Z,0
2016-11-17T02:57:47.846Z,0
2016-11-17T02:58:56.473Z,0
2016-11-17T03:00:05.112Z,0
2016-11-17T03:01:13.752Z,0
2016-11-17T03:02:22.384Z,0
2016-11-17T03:03:31.023Z,0
2016-11-17T03:04:39.665Z,0
2016-11-17T03:05:48.295Z,0
2016-11-17T03:06:56.943Z,0
2016-11-17T03:08:05.578Z,0
2016-11-17T03:09:14.208Z,0
2016-11-17T03:10:22.845Z,0
2016-11-17T03:11:31.459Z,0
2016-11-17T03:12:40.087Z,0
2016-11-17T03:13:48.720Z,0
2016-11-17T03:14:57.359Z,0
2016-11-17T03:16:05.987Z,0
2016-11-17T03:17:14.632Z,0
2016-11-17T03:18:23.274Z,0
2016-11-17T03:19:31.914Z,0
2016-11-17T03:20:40.535Z,0
2016-11-17T03:21:49.171Z,0
2016-11-17T03:22:57.802Z,0
2016-11-17T03:24:06.474Z,0
2016-11-17T03:25:15.124Z,0
2016-11-17T03:26:23.753Z,0
2016-11-17T03:27:32.373Z,0
2016-11-17T03:28:41.012Z,0
2016-11-17T03:29:49.632Z,0
2016-11-17T03:30:58.250Z,0
2016-11-17T03:32:07.179Z,0
2016-11-17T03:33:15.778Z,0
2016-11-17T03:34:24.378Z,0
2016-11-17T03:35:32.974Z,0
2016-11-17T03:36:41.606Z,0
2016-11-17T03:37:50.239Z,0
2016-11-17T03:38:58.859Z,0
2016-11-17T03:40:07.460Z,0
2016-11-17T03:41:16.080Z,0
2016-11-17T03:42:24.696Z,0
2016-11-17T03:43:33.313Z,0
2016-11-17T03:44:41.941Z,0
2016-11-17T03:45:50.587Z,0
2016-11-17T03:46:59.247Z,0
2016-11-17T03:48:07.877Z,0
2016-11-17T03:49:16.523Z,0
2016-11-17T03:50:25.139Z,0
2016-11-17T03:51:33.793Z,0
2016-11-17T03:52:42.412Z,0
2016-11-17T03:53:51.056Z,0
2016-11-17T03:54:59.703Z,0
2016-11-17T03:56:08.345Z,0
2016-11-17T03:57:16.987Z,0
2016-11-17T03:58:25.622Z,0
2016-11-17T03:59:34.267Z,0
2016-11-17T04:00:42.889Z,0
2016-11-17T04:01:51.512Z,0
2016-11-17T04:03:00.120Z,0
2016-11-17T04:04:08.752Z,0
2016-11-17T04:05:17.373Z,0
2016-11-17T04:06:25.991Z,0
2016-11-17T04:07:34.653Z,0
2016-11-17T04:08:43.283Z,0
2016-11-17T04:09:51.921Z,0
2016-11-17T04:11:00.549Z,0
2016-11-17T04:12:09.174Z,0
2016-11-17T04:13:17.801Z,0
2016-11-17T04:14:26.430Z,0
2016-11-17T04:15:35.077Z,0
2016-11-17T04:16:43.705Z,0
2016-11-17T04:17:52.348Z,0
2016-11-17T04:19:00.952Z,0
2016-11-17T04:20:09.587Z,0
2016-11-17T04:21:18.218Z,0
2016-11-17T04:22:26.836Z,0
2016-11-17T04:23:35.479Z,0
2016-11-17T04:24:44.104Z,0
2016-11-17T04:25:52.730Z,0
2016-11-17T04:27:01.380Z,0
2016-11-17T04:28:09.999Z,0
2016-11-17T04:29:18.643Z,0
2016-11-17T04:30:27.296Z,0
2016-11-17T04:31:35.934Z,0
2016-11-17T04:32:44.553Z,0
2016-11-17T04:33:53.176Z,0
2016-11-17T04:35:01.795Z,0
2016-11-17T04:36:10.433Z,0
2016-11-17T04:37:19.054Z,0
2016-11-17T04:38:27.726Z,0
2016-11-17T04:39:36.362Z,0
2016-11-17T04:40:44.998Z,0
2016-11-17T04:41:53.631Z,0
2016-11-17T04:43:02.260Z,0
2016-11-17T04:44:10.873Z,0
2016-11-17T04:45:19.503Z,0
2016-11-17T04:46:28.131Z,0
2016-11-17T04:47:36.758Z,0
2016-11-17T04:48:45.376Z,0
2016-11-17T04:49:54.021Z,0
2016-11-17T04:51:02.652Z,0
2016-11-17T04:52:11.268Z,0
2016-11-17T04:53:19.888Z,0
2016-11-17T04:54:28.812Z,0
2016-11-17T04:55:37.477Z,0
2016-11-17T04:56:46.119Z,0
2016-11-17T04:57:54.761Z,0
2016-11-17T04:59:03.371Z,0
2016-11-17T05:00:12.028Z,0
2016-11-17T05:01:20.674Z,0
2016-11-17T05:02:29.303Z,0
2016-11-17T05:03:37.931Z,0
2016-11-17T05:04:46.567Z,0
2016-11-17T05:05:55.220Z,0
2016-11-17T05:07:03.863Z,0
2016-11-17T05:08:12.484Z,0
2016-11-17T05:09:21.081Z,0
2016-11-17T05:10:29.710Z,0
2016-11-17T05:11:38.370Z,0
2016-11-17T05:12:47.018Z,0
2016-11-17T05:13:55.647Z,0
2016-11-17T05:15:04.267Z,0
2016-11-17T05:16:12.900Z,0
2016-11-17T05:17:21.546Z,0
2016-11-17T05:18:30.179Z,0
2016-11-17T05:19:38.822Z,0
2016-11-17T05:20:47.449Z,0
2016-11-17T05:21:56.065Z,0
2016-11-17T05:23:04.740Z,0
2016-11-17T05:24:13.362Z,0
2016-11-17T05:25:22.004Z,0
2016-11-17T05:26:30.623Z,0
2016-11-17T05:27:39.244Z,0
2016-11-17T05:28:47.874Z,0
2016-11-17T05:29:56.488Z,0
2016-11-17T05:31:05.143Z,0
2016-11-17T05:32:13.801Z,0
2016-11-17T05:33:22.442Z,0
2016-11-17T05:34:31.093Z,0
2016-11-17T05:35:39.735Z,0
2016-11-17T05:36:48.381Z,0
2016-11-17T05:37:57.027Z,0
2016-11-17T05:39:05.677Z,0
2016-11-17T05:40:14.319Z,0
2016-11-17T05:41:22.979Z,0
2016-11-17T05:42:31.615Z,0
2016-11-17T05:43:40.232Z,0
2016-11-17T05:44:48.858Z,0
2016-11-17T05:45:57.488Z,0
2016-11-17T05:47:06.110Z,0
2016-11-17T05:48:14.750Z,0
2016-11-17T05:49:23.365Z,0
2016-11-17T05:50:32.009Z,0
2016-11-17T05:51:40.641Z,0
2016-11-17T05:52:49.263Z,0
2016-11-17T05:53:57.903Z,0
2016-11-17T05:55:06.531Z,0
2016-11-17T05:56:15.470Z,0
2016-11-17T05:57:24.072Z,0
2016-11-17T05:58:32.692Z,0
2016-11-17T05:59:41.319Z,0
2016-11-17T06:00:49.934Z,0
2016-11-17T06:01:58.579Z,0
2016-11-17T06:03:07.223Z,0
2016-11-17T06:04:15.873Z,0
2016-11-17T06:05:24.490Z,0
2016-11-17T06:06:33.148Z,0
2016-11-17T06:07:41.778Z,0
2016-11-17T06:08:50.403Z,0
2016-11-17T06:09:59.056Z,0
2016-11-17T06:11:07.679Z,0
2016-11-17T06:12:16.299Z,0
2016-11-17T06:13:24.916Z,0
2016-11-17T06:14:33.541Z,0
2016-11-17T06:15:42.163Z,0
2016-11-17T06:16:50.779Z,0
2016-11-17T06:17:59.418Z,0
2016-11-17T06:19:08.094Z,0
2016-11-17T06:20:16.747Z,0
2016-11-17T06:21:25.369Z,0
2016-11-17T06:22:34.007Z,0
2016-11-17T06:23:42.635Z,0
2016-11-17T06:24:51.299Z,0
2016-11-17T06:25:59.941Z,0
2016-11-17T06:27:08.563Z,0
2016-11-17T06:28:17.238Z,0
2016-11-17T06:29:25.871Z,0
2016-11-17T06:30:34.510Z,0
2016-11-17T06:31:43.105Z,0
2016-11-17T06:32:51.768Z,0
2016-11-17T06:34:00.401Z,0
2016-11-17T06:35:09.043Z,0
2016-11-17T06:36:17.668Z,5
2016-11-17T06:37:26.306Z,5
2016-11-17T06:38:34.940Z,5
2016-11-17T06:39:43.583Z,5
2016-11-17T06:40:52.224Z,5
2016-11-17T06:42:00.873Z,5
2016-11-17T06:43:09.512Z,5
2016-11-17T06:44:18.142Z,5
2016-11-17T06:45:26.787Z,10
2016-11-17T06:46:35.422Z,10
2016-11-17T06:47:44.043Z,10
2016-11-17T06:48:52.657Z,10
2016-11-17T06:50:01.285Z,10
2016-11-17T06:51:09.913Z,10
2016-11-17T06:52:18.514Z,15
2016-11-17T06:53:27.153Z,10
2016-11-17T06:54:35.802Z,10
2016-11-17T06:55:44.426Z,10
2016-11-17T06:56:53.043Z,10
2016-11-17T06:58:01.665Z,10
2016-11-17T06:59:10.287Z,10
2016-11-17T07:00:18.908Z,15
2016-11-17T07:01:27.560Z,15
2016-11-17T07:02:36.181Z,15
2016-11-17T07:03:44.817Z,15
2016-11-17T07:04:53.458Z,20
2016-11-17T07:06:02.087Z,25
2016-11-17T07:07:10.736Z,30
2016-11-17T07:08:19.355Z,30
2016-11-17T07:09:28.022Z,30
2016-11-17T07:10:36.697Z,25
2016-11-17T07:11:45.319Z,25
2016-11-17T07:12:53.946Z,25
2016-11-17T07:14:02.537Z,30
2016-11-17T07:15:11.184Z,30
2016-11-17T07:16:19.823Z,25
2016-11-17T07:17:28.477Z,20
2016-11-17T07:18:37.146Z,20
2016-11-17T07:19:45.795Z,20
2016-11-17T07:20:54.458Z,20
2016-11-17T07:22:03.092Z,20
2016-11-17T07:23:11.725Z,25
2016-11-17T07:24:20.366Z,25
2016-11-17T07:25:28.992Z,20
2016-11-17T07:26:37.644Z,20
2016-11-17T07:27:46.268Z,15
2016-11-17T07:28:54.901Z,15
2016-11-17T07:30:03.505Z,20
2016-11-17T07:31:12.133Z,25
2016-11-17T07:32:20.775Z,30
2016-11-17T07:33:29.397Z,35
2016-11-17T07:34:38.081Z,35
2016-11-17T07:35:46.739Z,45
2016-11-17T07:36:55.385Z,55
2016-11-17T07:38:04.024Z,55
2016-11-17T07:39:12.669Z,55
2016-11-17T07:40:21.294Z,55
2016-11-17T07:41:29.937Z,50
2016-11-17T07:42:38.590Z,45
2016-11-17T07:43:47.250Z,45
2016-11-17T07:44:55.896Z,50
2016-11-17T07:46:04.500Z,60
2016-11-17T07:47:13.131Z,70
2016-11-17T07:48:21.746Z,75
2016-11-17T07:49:30.390Z,70
2016-11-17T07:50:39.026Z,70
2016-11-17T07:51:47.640Z,85
2016-11-17T07:52:56.273Z,100
2016-11-17T07:54:04.902Z,100
2016-11-17T07:55:13.536Z,95
2016-11-17T07:56:22.186Z,100
2016-11-17T07:57:30.835Z,115
2016-11-17T07:58:39.490Z,130
2016-11-17T07:59:48.103Z,140
2016-11-17T08:00:56.776Z,145
2016-11-17T08:02:05.396Z,160
2016-11-17T08:03:14.043Z,175
2016-11-17T08:04:22.693Z,185
2016-11-17T08:05:31.325Z,195
2016-11-17T08:06:39.979Z,200
2016-11-17T08:07:48.655Z,200
2016-11-17T08:08:57.249Z,200
2016-11-17T08:10:05.868Z,195
2016-11-17T08:11:14.512Z,195
2016-11-17T08:12:23.161Z,190
2016-11-17T08:13:31.798Z,190
2016-11-17T08:14:40.408Z,195
2016-11-17T08:15:49.025Z,195
2016-11-17T08:16:57.692Z,195
2016-11-17T08:18:06.316Z,195
2016-11-17T08:19:14.963Z,185
2016-11-17T08:20:23.605Z,165
2016-11-17T08:21:32.571Z,165
2016-11-17T08:22:41.226Z,170
2016-11-17T08:23:49.869Z,170
2016-11-17T08:24:58.514Z,160
2016-11-17T08:26:07.535Z,145
2016-11-17T08:27:16.161Z,135
2016-11-17T08:28:24.807Z,140
2016-11-17T08:29:33.428Z,150
2016-11-17T08:30:42.073Z,150
2016-11-17T08:31:50.669Z,150
2016-11-17T08:32:59.315Z,160
2016-11-17T08:34:07.933Z,175
2016-11-17T08:35:16.579Z,180
2016-11-17T08:36:25.226Z,185
2016-11-17T08:37:33.878Z,190
2016-11-17T08:38:42.517Z,195
2016-11-17T08:39:51.150Z,195
2016-11-17T08:40:59.773Z,205
2016-11-17T08:42:08.408Z,210
2016-11-17T08:43:17.011Z,215
2016-11-17T08:44:25.650Z,220
2016-11-17T08:45:34.289Z,220
2016-11-17T08:46:42.918Z,225
2016-11-17T08:47:51.530Z,230
2016-11-17T08:49:00.156Z,235
2016-11-17T08:50:08.812Z,235
2016-11-17T08:51:17.443Z,235
2016-11-17T08:52:26.100Z,230
2016-11-17T08:53:34.748Z,220
2016-11-17T08:54:43.369Z,205
2016-11-17T08:55:52.007Z,205
2016-11-17T08:57:00.658Z,210
2016-11-17T08:58:09.298Z,210
2016-11-17T08:59:17.944Z,205
2016-11-17T09:00:26.589Z,205
2016-11-17T09:01:35.231Z,200
2016-11-17T09:02:43.841Z,185
2016-11-17T09:03:52.464Z,190
2016-11-17T09:05:01.108Z,205
2016-11-17T09:06:09.703Z,215
2016-11-17T09:07:18.349Z,210
2016-11-17T09:08:26.986Z,225
2016-11-17T09:09:35.614Z,230
2016-11-17T09:10:44.557Z,225
2016-11-17T09:11:53.195Z,210
2016-11-17T09:13:01.807Z,200
2016-11-17T09:14:10.741Z,195
2016-11-17T09:15:19.371Z,185
2016-11-17T09:16:28.004Z,170
2016-11-17T09:17:36.609Z,160
2016-11-17T09:18:45.259Z,150
2016-11-17T09:19:53.898Z,150
2016-11-17T09:21:02.551Z,145
2016-11-17T09:22:11.169Z,135
2016-11-17T09:23:19.806Z,135
2016-11-17T09:24:28.456Z,135
2016-11-17T09:25:37.083Z,140
2016-11-17T09:26:45.708Z,145
2016-11-17T09:27:54.315Z,150
2016-11-17T09:29:02.948Z,150
2016-11-17T09:30:11.570Z,140
2016-11-17T09:31:20.207Z,140
2016-11-17T09:32:28.857Z,135
2016-11-17T09:33:37.500Z,130
2016-11-17T09:34:46.155Z,120
2016-11-17T09:35:54.772Z,120
2016-11-17T09:37:03.714Z,115
2016-11-17T09:38:12.391Z,115
2016-11-17T09:39:21.034Z,110
2016-11-17T09:40:29.678Z,115
2016-11-17T09:41:38.351Z,115
2016-11-17T09:42:46.965Z,115
2016-11-17T09:43:55.574Z,110
2016-11-17T09:45:04.236Z,110
2016-11-17T09:46:12.888Z,110
2016-11-17T09:47:21.539Z,110
2016-11-17T09:48:30.157Z,105
2016-11-17T09:49:38.798Z,100
2016-11-17T09:50:47.425Z,95
2016-11-17T09:51:56.063Z,100
2016-11-17T09:53:05.316Z,105
2016-11-17T09:54:13.953Z,110
2016-11-17T09:55:22.873Z,110
2016-11-17T09:56:31.498Z,115
2016-11-17T09:57:40.128Z,105
2016-11-17T09:58:48.747Z,95
2016-11-17T09:59:57.368Z,105
2016-11-17T10:01:05.985Z,115
2016-11-17T10:02:14.660Z,110
2016-11-17T10:03:23.284Z,110
2016-11-17T10:04:31.920Z,115
2016-11-17T10:05:40.577Z,120
2016-11-17T10:06:49.213Z,120
2016-11-17T10:07:57.859Z,120
2016-11-17T10:09:06.501Z,125
2016-11-17T10:10:15.112Z,130
2016-11-17T10:11:23.729Z,135
2016-11-17T10:12:32.351Z,145
2016-11-17T10:13:40.970Z,150
2016-11-17T10:14:49.911Z,150
2016-11-17T10:15:58.553Z,150
2016-11-17T10:17:07.189Z,135
2016-11-17T10:18:15.825Z,120
2016-11-17T10:19:24.445Z,115
2016-11-17T10:20:33.072Z,135
2016-11-17T10:21:41.709Z,145
2016-11-17T10:22:50.314Z,140
2016-11-17T10:23:58.963Z,140
2016-11-17T10:25:07.605Z,145
2016-11-17T10:26:16.247Z,140
2016-11-17T10:27:24.889Z,145
2016-11-17T10:28:33.536Z,150
2016-11-17T10:29:42.170Z,150
2016-11-17T10:30:50.815Z,145
2016-11-17T10:31:59.433Z,140
2016-11-17T10:33:08.059Z,135
2016-11-17T10:34:16.677Z,135
2016-11-17T10:35:25.891Z,130
2016-11-17T10:36:34.523Z,105
2016-11-17T10:37:43.155Z,90
2016-11-17T10:38:51.783Z,70
2016-11-17T10:40:00.455Z,60
2016-11-17T10:41:09.101Z,105
2016-11-17T10:42:17.747Z,110
2016-11-17T10:43:26.370Z,145
2016-11-17T10:44:35.045Z,145
2016-11-17T10:45:44.003Z,100
2016-11-17T10:46:52.649Z,115
2016-11-17T10:48:01.269Z,115
2016-11-17T10:49:10.203Z,90
2016-11-17T10:50:18.892Z,130
2016-11-17T10:51:27.522Z,170
2016-11-17T10:52:36.142Z,190
2016-11-17T10:53:44.776Z,180
2016-11-17T10:54:53.410Z,145
2016-11-17T10:56:02.076Z,100
2016-11-17T10:57:10.672Z,105
2016-11-17T10:58:19.310Z,125
2016-11-17T10:59:27.945Z,135
2016-11-17T11:00:36.591Z,150
2016-11-17T11:01:45.300Z,145
2016-11-17T11:02:53.903Z,115
2016-11-17T11:04:02.858Z,80
2016-11-17T11:05:11.473Z,70
2016-11-17T11:06:20.113Z,100
2016-11-17T11:07:28.738Z,125
2016-11-17T11:08:37.381Z,125
2016-11-17T11:09:46.011Z,145
2016-11-17T11:10:54.644Z,115
2016-11-17T11:12:03.580Z,135
2016-11-17T11:13:12.218Z,135
2016-11-17T11:14:20.860Z,90
2016-11-17T11:15:29.493Z,110
2016-11-17T11:16:38.140Z,195
2016-11-17T11:17:46.771Z,155
2016-11-17T11:18:55.703Z,125
2016-11-17T11:20:04.342Z,115
2016-11-17T11:21:12.973Z,120
2016-11-17T11:22:21.593Z,155
2016-11-17T11:23:30.226Z,225
2016-11-17T11:24:38.856Z,235
2016-11-17T11:25:47.498Z,220
2016-11-17T11:26:56.134Z,185
2016-11-17T11:28:04.790Z,175
2016-11-17T11:29:13.461Z,225
2016-11-17T11:30:22.092Z,190
2016-11-17T11:31:30.734Z,115
2016-11-17T11:32:39.358Z,130
2016-11-17T11:33:47.999Z,195
2016-11-17T11:34:56.625Z,220
2016-11-17T11:36:05.289Z,210
2016-11-17T11:37:13.892Z,275
2016-11-17T11:38:22.529Z,305
2016-11-17T11:39:31.455Z,280
2016-11-17T11:40:40.094Z,275
2016-11-17T11:41:48.728Z,275
2016-11-17T11:42:57.370Z,305
2016-11-17T11:44:05.992Z,285
2016-11-17T11:45:14.636Z,255
2016-11-17T11:46:23.260Z,255
2016-11-17T11:47:31.883Z,240
2016-11-17T11:48:40.521Z,225
2016-11-17T11:49:49.164Z,205
2016-11-17T11:50:57.799Z,225
2016-11-17T11:52:06.493Z,210
2016-11-17T11:53:15.115Z,220
2016-11-17T11:54:23.732Z,245
2016-11-17T11:55:32.395Z,255
2016-11-17T11:56:41.023Z,285
2016-11-17T11:57:49.665Z,350
2016-11-17T11:58:58.297Z,350
2016-11-17T12:00:06.933Z,320
2016-11-17T12:01:15.574Z,260
2016-11-17T12:02:24.181Z,265
2016-11-17T12:03:32.800Z,195
2016-11-17T12:04:41.442Z,205
2016-11-17T12:05:50.070Z,220
2016-11-17T12:06:58.697Z,245
2016-11-17T12:08:07.327Z,320
2016-11-17T12:09:15.962Z,350
2016-11-17T12:10:24.583Z,325
2016-11-17T12:11:33.216Z,375
2016-11-17T12:12:41.841Z,365
2016-11-17T12:13:50.458Z,320
2016-11-17T12:14:59.092Z,330
2016-11-17T12:16:08.033Z,295
2016-11-17T12:17:16.685Z,250
2016-11-17T12:18:25.329Z,220
2016-11-17T12:19:33.968Z,190
2016-11-17T12:20:42.593Z,220
2016-11-17T12:21:51.219Z,190
2016-11-17T12:22:59.852Z,215
2016-11-17T12:24:08.481Z,240
2016-11-17T12:25:17.108Z,230
2016-11-17T12:26:25.742Z,220
2016-11-17T12:27:34.366Z,235
2016-11-17T12:28:42.971Z,250
2016-11-17T12:29:51.622Z,240
2016-11-17T12:31:00.258Z,255
2016-11-17T12:32:08.897Z,255
2016-11-17T12:33:17.501Z,260
2016-11-17T12:34:26.150Z,255
2016-11-17T12:35:34.785Z,245
2016-11-17T12:36:43.411Z,230
2016-11-17T12:37:52.057Z,220
2016-11-17T12:39:00.698Z,200
2016-11-17T12:40:09.330Z,180
2016-11-17T12:41:17.932Z,175
2016-11-17T12:42:26.549Z,165
2016-11-17T12:43:35.168Z,185
2016-11-17T12:44:44.088Z,180
2016-11-17T12:45:53.042Z,205
2016-11-17T12:47:01.671Z,205
2016-11-17T12:48:10.303Z,205
2016-11-17T12:49:18.902Z,220
2016-11-17T12:50:27.520Z,230
2016-11-17T12:51:36.139Z,225
2016-11-17T12:52:44.760Z,225
2016-11-17T12:53:53.414Z,225
2016-11-17T12:55:02.032Z,235
2016-11-17T12:56:10.670Z,250
2016-11-17T12:57:19.350Z,250
2016-11-17T12:58:27.973Z,280
2016-11-17T12:59:36.621Z,285
2016-11-17T13:00:45.262Z,270
2016-11-17T13:01:53.881Z,260
2016-11-17T13:03:02.531Z,255
2016-11-17T13:04:11.177Z,215
2016-11-17T13:05:19.817Z,200
2016-11-17T13:06:28.460Z,185
2016-11-17T13:07:37.102Z,175
2016-11-17T13:08:45.730Z,165
2016-11-17T13:09:54.655Z,185
2016-11-17T13:11:03.280Z,195
2016-11-17T13:12:11.922Z,195
2016-11-17T13:13:20.544Z,190
2016-11-17T13:14:29.179Z,185
2016-11-17T13:15:37.811Z,180
2016-11-17T13:16:46.447Z,170
2016-11-17T13:17:55.059Z,165
2016-11-17T13:19:03.975Z,155
2016-11-17T13:20:12.598Z,150
2016-11-17T13:21:21.238Z,155
2016-11-17T13:22:29.892Z,145
2016-11-17T13:23:38.512Z,135
2016-11-17T13:24:47.160Z,130
2016-11-17T13:25:55.790Z,130
2016-11-17T13:27:04.415Z,125
2016-11-17T13:28:13.065Z,120
2016-11-17T13:29:21.712Z,115
2016-11-17T13:30:30.333Z,120
2016-11-17T13:31:38.953Z,120
2016-11-17T13:32:47.599Z,115
2016-11-17T13:33:56.227Z,105
2016-11-17T13:35:04.846Z,95
2016-11-17T13:36:13.466Z,85
2016-11-17T13:37:22.113Z,80
2016-11-17T13:38:30.748Z,75
2016-11-17T13:39:39.377Z,85
2016-11-17T13:40:48.002Z,85
2016-11-17T13:41:56.645Z,85
2016-11-17T13:43:05.321Z,70
2016-11-17T13:44:13.979Z,60
2016-11-17T13:45:22.606Z,55
2016-11-17T13:46:31.214Z,50
2016-11-17T13:47:39.871Z,55
2016-11-17T13:48:48.528Z,70
2016-11-17T13:49:57.488Z,75
2016-11-17T13:51:06.113Z,80
2016-11-17T13:52:14.755Z,90
2016-11-17T13:53:23.412Z,100
2016-11-17T13:54:32.044Z,95
2016-11-17T13:55:40.664Z,80
2016-11-17T13:56:49.295Z,70
2016-11-17T13:57:57.956Z,70
2016-11-17T13:59:06.586Z,65
2016-11-17T14:00:15.235Z,70
2016-11-17T14:01:23.856Z,65
2016-11-17T14:02:32.479Z,60
2016-11-17T14:03:41.117Z,45
2016-11-17T14:04:49.763Z,50
2016-11-17T14:05:58.417Z,60
2016-11-17T14:07:07.058Z,60
2016-11-17T14:08:15.696Z,65
2016-11-17T14:09:24.352Z,65
2016-11-17T14:10:32.979Z,60
2016-11-17T14:11:41.960Z,55
2016-11-17T14:12:50.596Z,60
2016-11-17T14:13:59.282Z,60
2016-11-17T14:15:08.207Z,60
2016-11-17T14:16:16.834Z,60
2016-11-17T14:17:25.454Z,55
2016-11-17T14:18:34.071Z,55
2016-11-17T14:19:42.692Z,55
2016-11-17T14:20:51.329Z,45
2016-11-17T14:21:59.962Z,35
2016-11-17T14:23:08.582Z,30
2016-11-17T14:24:17.217Z,30
2016-11-17T14:25:25.868Z,25
2016-11-17T14:26:34.494Z,30
2016-11-17T14:27:43.118Z,35
2016-11-17T14:28:51.759Z,40
2016-11-17T14:30:00.386Z,45
2016-11-17T14:31:09.003Z,45
2016-11-17T14:32:17.951Z,45
2016-11-17T14:33:26.618Z,45
2016-11-17T14:34:35.270Z,40
2016-11-17T14:35:43.908Z,30
2016-11-17T14:36:52.542Z,30
2016-11-17T14:38:01.175Z,30
2016-11-17T14:39:09.808Z,30
2016-11-17T14:40:18.423Z,30
2016-11-17T14:41:27.050Z,25
2016-11-17T14:42:35.665Z,25
2016-11-17T14:43:44.308Z,20
2016-11-17T14:44:52.938Z,20
2016-11-17T14:46:01.582Z,20
2016-11-17T14:47:10.219Z,20
2016-11-17T14:48:18.865Z,20
2016-11-17T14:49:27.515Z,20
2016-11-17T14:50:36.153Z,15
2016-11-17T14:51:44.787Z,15
2016-11-17T14:52:53.408Z,10
2016-11-17T14:54:02.040Z,10
2016-11-17T14:55:10.672Z,10
2016-11-17T14:56:19.307Z,5
2016-11-17T14:57:27.916Z,5
2016-11-17T14:58:36.509Z,5
2016-11-17T14:59:45.156Z,5
2016-11-17T15:00:54.126Z,5
2016-11-17T15:02:02.789Z,5
2016-11-17T15:03:11.399Z,5
2016-11-17T15:04:20.014Z,5
2016-11-17T15:05:28.644Z,5
2016-11-17T15:06:37.277Z,0
2016-11-17T15:07:45.919Z,0
2016-11-17T15:08:54.553Z,0
2016-11-17T15:10:03.203Z,0
2016-11-17T15:11:11.833Z,0
2016-11-17T15:12:20.483Z,0
2016-11-17T15:13:29.149Z,0
2016-11-17T15:14:37.783Z,0
2016-11-17T15:15:46.421Z,0
2016-11-17T15:16:55.068Z,0
2016-11-17T15:18:03.713Z,0
2016-11-17T15:19:12.383Z,0
2016-11-17T15:20:21.037Z,0
2016-11-17T15:21:29.658Z,0
2016-11-17T15:22:38.281Z,0
2016-11-17T15:23:47.297Z,0
2016-11-17T15:24:55.923Z,0
2016-11-17T15:26:04.569Z,0
2016-11-17T15:27:13.189Z,0
2016-11-17T15:28:21.835Z,0
2016-11-17T15:29:30.487Z,0
2016-11-17T15:30:39.182Z,0
2016-11-17T15:31:47.819Z,0
2016-11-17T15:32:56.433Z,0
2016-11-17T15:34:05.104Z,0
2016-11-17T15:35:13.765Z,0
2016-11-17T15:36:22.387Z,0
2016-11-17T15:37:31.047Z,0
2016-11-17T15:38:39.678Z,0
2016-11-17T15:39:48.294Z,0
2016-11-17T15:40:56.963Z,0
2016-11-17T15:42:05.581Z,0
2016-11-17T15:43:14.186Z,0
2016-11-17T15:44:22.801Z,0
2016-11-17T15:45:31.424Z,0
2016-11-17T15:46:40.044Z,0
2016-11-17T15:47:48.667Z,0
2016-11-17T15:48:57.290Z,0
2016-11-17T15:50:05.932Z,0
2016-11-17T15:51:14.581Z,0
2016-11-17T15:52:23.205Z,0
2016-11-17T15:53:31.848Z,0
2016-11-17T15:54:40.496Z,0
2016-11-17T15:55:49.129Z,0
2016-11-17T15:56:57.762Z,0
2016-11-17T15:58:06.401Z,0
2016-11-17T15:59:15.035Z,0
2016-11-17T16:00:23.664Z,0
2016-11-17T16:01:32.592Z,0
2016-11-17T16:02:41.241Z,0
2016-11-17T16:03:49.862Z,0
2016-11-17T16:04:58.511Z,0
2016-11-17T16:06:07.130Z,0
2016-11-17T16:07:15.769Z,0
2016-11-17T16:08:24.397Z,0
2016-11-17T16:09:33.032Z,0
2016-11-17T16:10:41.682Z,0
2016-11-17T16:11:50.308Z,0
2016-11-17T16:12:58.949Z,0
2016-11-17T16:14:07.624Z,0
2016-11-17T16:15:16.253Z,0
2016-11-17T16:16:24.888Z,0
2016-11-17T16:17:33.537Z,0
2016-11-17T16:18:42.179Z,0
2016-11-17T16:19:50.822Z,0
2016-11-17T16:20:59.457Z,0
2016-11-17T16:22:08.098Z,0
2016-11-17T16:23:16.718Z,0
2016-11-17T16:24:25.355Z,0